createdAt,value
2023-04-15T00:03:35.689Z,89.81
2023-04-15T00:08:37.933Z,89.86
2023-04-15T00:13:40.429Z,89.96
2023-04-15T00:18:42.366Z,90.07
2023-04-15T00:23:44.289Z,90.11
2023-04-15T00:28:47.014Z,90.10
2023-04-15T00:33:49.873Z,90.17
2023-04-15T00:38:52.041Z,90.31
2023-04-15T00:43:56.800Z,90.33
2023-04-15T00:48:59.138Z,90.38
2023-04-15T00:54:06.321Z,90.44
2023-04-15T00:59:09.554Z,90.57
2023-04-15T01:04:12.477Z,90.63
2023-04-15T01:09:14.842Z,90.72
2023-04-15T01:14:17.462Z,90.78
2023-04-15T01:19:19.984Z,90.84
2023-04-15T01:24:24.133Z,90.77
2023-04-15T01:29:26.830Z,90.82
2023-04-15T01:34:29.059Z,90.84
2023-04-15T01:39:30.877Z,90.81
2023-04-15T01:44:33.093Z,90.77
2023-04-15T01:49:35.185Z,90.40
2023-04-15T01:54:37.837Z,88.63
2023-04-15T01:59:39.846Z,88.71
2023-04-15T02:04:41.846Z,88.61
2023-04-15T02:09:43.680Z,84.95
2023-04-15T02:14:46.301Z,83.13
2023-04-15T02:19:48.398Z,82.24
2023-04-15T02:24:51.017Z,83.50
2023-04-15T02:29:53.452Z,85.51
2023-04-15T02:34:55.915Z,85.61
2023-04-15T02:39:58.101Z,82.56
2023-04-15T02:45:00.027Z,82.45
2023-04-15T02:50:08.101Z,81.44
2023-04-15T02:55:11.201Z,80.91
2023-04-15T03:00:14.344Z,81.00
2023-04-15T03:05:18.071Z,81.69
2023-04-15T03:10:24.792Z,81.29
2023-04-15T03:15:27.266Z,81.30
2023-04-15T03:20:29.782Z,82.10
2023-04-15T03:25:32.350Z,82.97
2023-04-15T03:30:35.922Z,82.53
2023-04-15T03:35:38.483Z,84.64
2023-04-15T03:40:41.630Z,86.49
2023-04-15T03:45:43.925Z,87.36
2023-04-15T03:50:46.324Z,85.03
2023-04-15T03:55:48.674Z,82.42
2023-04-15T04:00:50.882Z,82.82
2023-04-15T04:05:52.874Z,85.57
2023-04-15T04:10:54.715Z,86.76
2023-04-15T04:15:57.271Z,85.68
2023-04-15T04:20:59.444Z,87.40
2023-04-15T04:26:02.672Z,88.63
2023-04-15T04:31:05.604Z,89.19
2023-04-15T04:36:07.896Z,89.53
2023-04-15T04:41:09.823Z,89.84
2023-04-15T04:46:12.971Z,90.09
2023-04-15T04:51:16.649Z,90.25
2023-04-15T04:56:19.156Z,90.24
2023-04-15T05:01:21.502Z,90.43
2023-04-15T05:06:28.546Z,90.51
2023-04-15T05:11:31.043Z,90.61
2023-04-15T05:16:33.271Z,90.44
2023-04-15T05:21:36.216Z,89.79
2023-04-15T05:26:39.710Z,89.51
2023-04-15T05:31:42.269Z,89.74
2023-04-15T05:36:44.843Z,89.91
2023-04-15T05:41:46.848Z,88.81
2023-04-15T05:46:48.919Z,88.87
2023-04-15T05:51:51.488Z,88.26
2023-04-15T05:56:54.250Z,88.17
2023-04-15T06:01:56.574Z,88.29
2023-04-15T06:06:58.628Z,87.41
2023-04-15T06:12:01.913Z,88.01
2023-04-15T06:17:04.246Z,87.36
2023-04-15T06:22:07.703Z,86.01
2023-04-15T06:27:09.737Z,85.71
2023-04-15T06:32:12.401Z,85.44
2023-04-15T06:37:16.954Z,84.94
2023-04-15T06:42:18.968Z,85.33
2023-04-15T06:47:21.787Z,85.04
2023-04-15T06:52:23.687Z,83.64
2023-04-15T06:57:26.044Z,83.44
2023-04-15T07:02:28.115Z,83.91
2023-04-15T07:07:30.508Z,82.48
2023-04-15T07:12:32.483Z,81.80
2023-04-15T07:17:34.604Z,82.62
2023-04-15T07:22:36.519Z,83.50
2023-04-15T07:27:38.914Z,84.10
2023-04-15T07:32:42.475Z,84.78
2023-04-15T07:37:45.131Z,84.46
2023-04-15T07:42:49.515Z,82.39
2023-04-15T07:47:51.608Z,82.46
2023-04-15T07:52:53.795Z,81.65
2023-04-15T07:57:56.589Z,82.39
2023-04-15T08:02:59.704Z,79.26
2023-04-15T08:08:02.005Z,76.14
2023-04-15T08:13:03.793Z,76.45
2023-04-15T08:18:06.542Z,73.65
2023-04-15T08:23:08.742Z,75.26
2023-04-15T08:28:10.772Z,74.08
2023-04-15T08:33:13.263Z,74.98
2023-04-15T08:38:15.711Z,71.57
2023-04-15T08:43:28.744Z,72.25
2023-04-15T08:48:35.020Z,74.12
2023-04-15T08:53:37.638Z,71.81
2023-04-15T08:58:40.384Z,76.88
2023-04-15T09:03:42.568Z,75.65
2023-04-15T09:08:45.000Z,75.65
2023-04-15T09:13:46.923Z,78.25
2023-04-15T09:18:48.963Z,73.62
2023-04-15T09:23:59.296Z,74.71
2023-04-15T09:29:13.625Z,75.48
2023-04-15T09:34:15.944Z,67.37
2023-04-15T09:39:18.124Z,71.31
2023-04-15T09:44:24.845Z,66.55
2023-04-15T09:49:27.547Z,64.00
2023-04-15T09:54:38.912Z,70.82
2023-04-15T09:59:41.069Z,65.21
2023-04-15T10:04:44.472Z,65.51
2023-04-15T10:09:47.136Z,60.94
2023-04-15T10:14:56.762Z,57.63
2023-04-15T10:20:01.831Z,64.05
2023-04-15T10:25:04.599Z,69.19
2023-04-15T10:30:09.087Z,66.41
2023-04-15T10:35:12.023Z,69.28
2023-04-15T10:40:33.668Z,58.41
2023-04-15T10:45:37.318Z,64.23
2023-04-15T10:50:39.545Z,64.99
2023-04-15T10:55:41.433Z,70.46
2023-04-15T11:00:52.808Z,65.81
2023-04-15T11:05:55.967Z,69.14
2023-04-15T11:10:57.911Z,67.93
2023-04-15T11:16:01.710Z,64.80
2023-04-15T11:21:06.962Z,64.56
2023-04-15T11:26:12.028Z,63.16
2023-04-15T11:31:18.137Z,64.81
2023-04-15T11:36:20.496Z,59.67
2023-04-15T11:41:23.643Z,58.75
2023-04-15T11:46:31.858Z,69.02
2023-04-15T11:51:35.232Z,64.87
2023-04-15T11:56:37.147Z,62.91
2023-04-15T12:01:40.048Z,70.22
2023-04-15T12:06:42.331Z,74.65
2023-04-15T12:11:52.006Z,65.43
2023-04-15T12:17:00.332Z,70.20
2023-04-15T12:22:10.167Z,64.49
2023-04-15T12:27:13.907Z,66.31
2023-04-15T12:32:17.590Z,63.59
2023-04-15T12:37:20.226Z,57.43
2023-04-15T12:42:23.731Z,57.66
2023-04-15T12:47:25.618Z,62.41
2023-04-15T12:52:27.722Z,57.72
2023-04-15T12:57:29.712Z,59.98
2023-04-15T13:02:32.779Z,57.76
2023-04-15T13:07:35.127Z,59.44
2023-04-15T13:12:37.347Z,59.93
2023-04-15T13:17:39.312Z,54.66
2023-04-15T13:22:42.695Z,59.56
2023-04-15T13:27:44.697Z,62.21
2023-04-15T13:32:48.780Z,60.34
2023-04-15T13:37:54.456Z,56.48
2023-04-15T13:42:57.800Z,56.60
2023-04-15T13:47:59.793Z,54.94
2023-04-15T13:53:02.225Z,55.60
2023-04-15T13:58:04.113Z,56.57
2023-04-15T14:03:07.131Z,59.05
2023-04-15T14:08:09.298Z,59.70
2023-04-15T14:13:11.389Z,62.79
2023-04-15T14:18:13.552Z,65.46
2023-04-15T14:23:16.140Z,65.32
2023-04-15T14:28:18.174Z,63.88
2023-04-15T14:33:20.419Z,64.30
2023-04-15T14:38:23.221Z,67.59
2023-04-15T14:43:25.874Z,62.79
2023-04-15T14:48:28.772Z,64.15
2023-04-15T14:53:32.296Z,64.57
2023-04-15T14:58:37.781Z,65.08
2023-04-15T15:03:40.524Z,65.02
2023-04-15T15:08:43.011Z,61.33
2023-04-15T15:13:45.422Z,61.01
2023-04-15T15:18:47.613Z,60.44
2023-04-15T15:23:49.589Z,62.65
2023-04-15T15:28:51.526Z,64.78
2023-04-15T15:33:53.696Z,66.87
2023-04-15T15:39:02.139Z,69.10
2023-04-15T15:44:17.559Z,68.84
2023-04-15T15:49:20.127Z,69.46
2023-04-15T15:54:26.418Z,68.63
2023-04-15T15:59:28.235Z,63.47
2023-04-15T16:04:30.616Z,66.73
2023-04-15T16:09:33.049Z,68.72
2023-04-15T16:14:35.098Z,67.66
2023-04-15T16:19:36.994Z,70.08
2023-04-15T16:24:39.497Z,68.10
2023-04-15T16:29:41.886Z,70.15
2023-04-15T16:34:43.993Z,71.88
2023-04-15T16:39:46.064Z,73.67
2023-04-15T16:44:48.677Z,75.32
2023-04-15T16:49:50.696Z,75.33
2023-04-15T16:54:53.155Z,75.58
2023-04-15T16:59:54.940Z,76.81
2023-04-15T17:04:57.796Z,77.94
2023-04-15T17:09:59.802Z,78.38
2023-04-15T17:15:01.932Z,78.81
2023-04-15T17:20:04.287Z,78.06
2023-04-15T17:25:07.370Z,78.84
2023-04-15T17:30:09.755Z,77.12
2023-04-15T17:35:12.442Z,77.64
2023-04-15T17:40:15.149Z,78.77
2023-04-15T17:45:17.250Z,80.71
2023-04-15T17:50:19.186Z,80.99
2023-04-15T17:55:22.273Z,82.11
2023-04-15T18:00:24.218Z,83.41
2023-04-15T18:05:26.857Z,84.29
2023-04-15T18:10:28.853Z,84.51
2023-04-15T18:15:31.672Z,84.33
2023-04-15T18:20:33.625Z,81.21
2023-04-15T18:25:38.382Z,80.31
2023-04-15T18:30:40.376Z,81.59
2023-04-15T18:35:43.102Z,82.78
2023-04-15T18:40:45.208Z,84.88
2023-04-15T18:45:47.360Z,84.60
2023-04-15T18:50:49.367Z,84.66
2023-04-15T18:55:51.631Z,84.93
2023-04-15T19:00:53.916Z,85.03
2023-04-15T19:05:57.329Z,85.04
2023-04-15T19:10:59.582Z,85.09
2023-04-15T19:16:01.661Z,85.85
2023-04-15T19:21:04.122Z,85.93
2023-04-15T19:26:08.362Z,86.39
2023-04-15T19:31:10.237Z,86.95
2023-04-15T19:36:12.575Z,87.10
2023-04-15T19:41:15.442Z,87.05
2023-04-15T19:46:17.691Z,85.03
2023-04-15T19:51:19.673Z,85.66
2023-04-15T19:56:23.908Z,86.26
2023-04-15T20:01:27.921Z,87.06
2023-04-15T20:06:30.449Z,87.75
2023-04-15T20:12:48.354Z,87.98
2023-04-15T20:16:54.633Z,87.19
2023-04-15T20:21:56.467Z,87.47
2023-04-15T20:26:58.536Z,88.20
2023-04-15T20:32:00.426Z,88.43
2023-04-15T20:37:02.317Z,88.59
2023-04-15T20:42:04.742Z,88.87
2023-04-15T20:47:07.767Z,88.92
2023-04-15T20:52:10.081Z,89.09
2023-04-15T20:57:12.145Z,89.29
2023-04-15T21:02:14.154Z,89.51
2023-04-15T21:07:17.041Z,89.66
2023-04-15T21:12:19.773Z,89.85
2023-04-15T21:17:23.436Z,90.07
2023-04-15T21:22:25.258Z,90.15
2023-04-15T21:27:27.236Z,90.15
2023-04-15T21:32:30.839Z,90.24
2023-04-15T21:37:32.853Z,89.56
2023-04-15T21:42:35.938Z,86.41
2023-04-15T21:48:00.694Z,86.04
2023-04-15T21:53:08.714Z,85.31
2023-04-15T21:58:11.066Z,85.35
2023-04-15T22:03:13.322Z,84.86
2023-04-15T22:08:16.064Z,84.66
2023-04-15T22:13:18.134Z,84.81
2023-04-15T22:18:20.310Z,85.77
2023-04-15T22:23:22.327Z,86.75
2023-04-15T22:28:24.358Z,85.72
2023-04-15T22:33:26.245Z,86.73
2023-04-15T22:38:28.371Z,88.03
2023-04-15T22:43:31.201Z,88.56
2023-04-15T22:48:34.798Z,88.49
2023-04-15T22:53:36.664Z,89.01
2023-04-15T22:58:38.763Z,89.43
2023-04-15T23:03:57.054Z,89.64
2023-04-15T23:09:03.734Z,90.01
2023-04-15T23:14:32.577Z,90.14
2023-04-15T23:19:34.648Z,90.33
2023-04-15T23:24:36.569Z,90.39
2023-04-15T23:29:38.966Z,90.60
2023-04-15T23:34:40.868Z,90.74
2023-04-15T23:39:43.498Z,90.66
2023-04-15T23:44:46.776Z,90.75
2023-04-15T23:49:57.495Z,90.84
2023-04-15T23:55:00.528Z,90.97
